Map

Track Data

SID SEASON NUMBER BASIN SUBBASIN NAME ISO_TIME NATURE LAT LON WMO_WIND WMO_PRES WMO_AGENCY TRACK_TYPE DIST2LAND LANDFALL IFLAG USA_AGENCY USA_ATCF_ID USA_LAT USA_LON USA_RECORD USA_STATUS USA_WIND USA_PRES USA_SSHS USA_R34_NE USA_R34_SE USA_R34_SW USA_R34_NW USA_R50_NE USA_R50_SE USA_R50_SW USA_R50_NW USA_R64_NE USA_R64_SE USA_R64_SW USA_R64_NW USA_POCI USA_ROCI USA_RMW USA_EYE TOKYO_LAT TOKYO_LON TOKYO_GRADE TOKYO_WIND TOKYO_PRES TOKYO_R50_DIR TOKYO_R50_LONG TOKYO_R50_SHORT TOKYO_R30_DIR TOKYO_R30_LONG TOKYO_R30_SHORT TOKYO_LAND CMA_LAT CMA_LON CMA_CAT CMA_WIND CMA_PRES HKO_LAT HKO_LON HKO_CAT HKO_WIND HKO_PRES NEWDELHI_LAT NEWDELHI_LON NEWDELHI_GRADE NEWDELHI_WIND NEWDELHI_PRES NEWDELHI_CI NEWDELHI_DP NEWDELHI_POCI REUNION_LAT REUNION_LON REUNION_TYPE REUNION_WIND REUNION_PRES REUNION_TNUM REUNION_CI REUNION_RMW REUNION_R34_NE REUNION_R34_SE REUNION_R34_SW REUNION_R34_NW REUNION_R50_NE REUNION_R50_SE REUNION_R50_SW REUNION_R50_NW REUNION_R64_NE REUNION_R64_SE REUNION_R64_SW REUNION_R64_NW BOM_LAT BOM_LON BOM_TYPE BOM_WIND BOM_PRES BOM_TNUM BOM_CI BOM_RMW BOM_R34_NE BOM_R34_SE BOM_R34_SW BOM_R34_NW BOM_R50_NE BOM_R50_SE BOM_R50_SW BOM_R50_NW BOM_R64_NE BOM_R64_SE BOM_R64_SW BOM_R64_NW BOM_ROCI BOM_POCI BOM_EYE BOM_POS_METHOD BOM_PRES_METHOD NADI_LAT NADI_LON NADI_CAT NADI_WIND NADI_PRES WELLINGTON_LAT WELLINGTON_LON WELLINGTON_WIND WELLINGTON_PRES DS824_LAT DS824_LON DS824_STAGE DS824_WIND DS824_PRES TD9636_LAT TD9636_LON TD9636_STAGE TD9636_WIND TD9636_PRES TD9635_LAT TD9635_LON TD9635_WIND TD9635_PRES TD9635_ROCI NEUMANN_LAT NEUMANN_LON NEUMANN_CLASS NEUMANN_WIND NEUMANN_PRES MLC_LAT MLC_LON MLC_CLASS MLC_WIND MLC_PRES USA_GUST BOM_GUST BOM_GUST_PER REUNION_GUST REUNION_GUST_PER USA_SEAHGT USA_SEARAD_NE USA_SEARAD_SE USA_SEARAD_SW USA_SEARAD_NW STORM_SPEED STORM_DIR
1997263N14084 1997 86 NI BB NOT_NAMED 1997-09-19 18:00:00 NR 14.2000 84.0000 main 324 324 O_____________ jtwc_io IO021997 14.2000 84.0000 15 -1 14 189
1997263N14084 1997 86 NI BB NOT_NAMED 1997-09-19 21:00:00 NR 13.5300 83.8898 main 387 378 P_____________ IO021997 13.5300 83.8898 15 -1 11 190
1997263N14084 1997 86 NI BB NOT_NAMED 1997-09-20 00:00:00 NR 13.1000 83.8000 main 379 368 O_____________ jtwc_io IO021997 13.1000 83.8000 XX 15 -5 5 197
1997263N14084 1997 86 NI BB NOT_NAMED 1997-09-20 03:00:00 NR 13.0600 83.7426 main 368 368 P_____________ IO021997 13.0600 83.7426 XX 15 -5 1 317
1997263N14084 1997 86 NI BB NOT_NAMED 1997-09-20 06:00:00 NR 13.2000 83.7000 main 368 368 O_____________ jtwc_io IO021997 13.2000 83.7000 XX 15 -5 2 335
1997263N14084 1997 86 NI BB NOT_NAMED 1997-09-20 09:00:00 NR 13.2500 83.6500 main 368 357 P_____________ IO021997 13.2500 83.6500 XX 15 -5 1 317
1997263N14084 1997 86 NI BB NOT_NAMED 1997-09-20 12:00:00 NR 13.3000 83.6000 main 357 346 O_____________ jtwc_io IO021997 13.3000 83.6000 XX 15 -5 1 315
1997263N14084 1997 86 NI BB NOT_NAMED 1997-09-20 15:00:00 NR 13.3500 83.5425 main 346 346 P_____________ IO021997 13.3500 83.5425 XX 15 -5 1 317
1997263N14084 1997 86 NI BB NOT_NAMED 1997-09-20 18:00:00 NR 13.4000 83.5000 main 346 346 O_____________ jtwc_io IO021997 13.4000 83.5000 XX 15 -5 1 343
1997263N14084 1997 86 NI BB NOT_NAMED 1997-09-20 21:00:00 NR 13.4425 83.5000 main 346 346 P_____________ IO021997 13.4425 83.5000 XX 17 -5 1 0
1997263N14084 1997 86 NI BB NOT_NAMED 1997-09-21 00:00:00 NR 13.5000 83.5000 main 346 346 O_____________ jtwc_io IO021997 13.5000 83.5000 XX 20 -5 2 341
1997263N14084 1997 86 NI BB NOT_NAMED 1997-09-21 03:00:00 NR 13.5925 83.4500 main 346 335 P_____________ IO021997 13.5925 83.4500 XX 20 -5 2 333
1997263N14084 1997 86 NI BB NOT_NAMED 1997-09-21 06:00:00 NR 13.7000 83.4000 main 335 332 O_____________ jtwc_io IO021997 13.7000 83.4000 XX 20 -5 2 343
1997263N14084 1997 86 NI BB NOT_NAMED 1997-09-21 09:00:00 NR 13.8000 83.4000 main 332 322 P_____________ IO021997 13.8000 83.4000 XX 20 -5 2 8
1997263N14084 1997 86 NI BB NOT_NAMED 1997-09-21 12:00:00 NR 13.9000 83.4000 main 322 312 O_____________ jtwc_io IO021997 13.9000 83.4000 XX 20 -5 2 347
1997263N14084 1997 86 NI BB NOT_NAMED 1997-09-21 15:00:00 NR 14.0000 83.3575 main 312 297 P_____________ IO021997 14.0000 83.3575 XX 22 -5 2 333
1997263N14084 1997 86 NI BB NOT_NAMED 1997-09-21 18:00:00 NR 14.1000 83.3000 main 297 287 O_____________ jtwc_io IO021997 14.1000 83.3000 XX 25 -5 2 332
1997263N14084 1997 86 NI BB NOT_NAMED 1997-09-21 21:00:00 NR 14.2000 83.2500 main 287 273 P_____________ IO021997 14.2000 83.2500 XX 25 -5 2 333
1997263N14084 1997 86 NI BB NOT_NAMED 1997-09-22 00:00:00 NR 14.3000 83.2000 main 273 258 O_____________ jtwc_io IO021997 14.3000 83.2000 XX 25 -5 2 332
1997263N14084 1997 86 NI BB NOT_NAMED 1997-09-22 03:00:00 NR 14.4000 83.1425 main 258 248 P_____________ IO021997 14.4000 83.1425 XX 25 -5 2 333
1997263N14084 1997 86 NI BB NOT_NAMED 1997-09-22 06:00:00 NR 14.5000 83.1000 main 248 238 O_____________ jtwc_io IO021997 14.5000 83.1000 XX 25 -5 2 347
1997263N14084 1997 86 NI BB NOT_NAMED 1997-09-22 09:00:00 NR 14.5925 83.1000 main 238 228 P_____________ IO021997 14.5925 83.1000 XX 25 -5 2 8
1997263N14084 1997 86 NI BB NOT_NAMED 1997-09-22 12:00:00 NR 14.7000 83.1000 main 228 218 O_____________ jtwc_io IO021997 14.7000 83.1000 XX 25 -5 3 353
1997263N14084 1997 86 NI BB NOT_NAMED 1997-09-22 15:00:00 NR 14.8500 83.0575 main 208 193 P_____________ IO021997 14.8500 83.0575 XX 25 -5 3 343
1997263N14084 1997 86 NI BB NOT_NAMED 1997-09-22 18:00:00 NR 15.0000 83.0000 main 193 183 O_____________ jtwc_io IO021997 15.0000 83.0000 XX 25 -5 3 340
1997263N14084 1997 86 NI BB NOT_NAMED 1997-09-22 21:00:00 NR 15.1150 82.9575 main 183 168 P_____________ IO021997 15.1150 82.9575 XX 25 -5 2 333
1997263N14084 1997 86 NI BB NOT_NAMED 1997-09-23 00:00:00 NR 15.2000 82.9000 main 168 153 O_____________ jtwc_io IO021997 15.2000 82.9000 XX 25 -5 3 314
1997263N14084 1997 86 NI BB NOT_NAMED 1997-09-23 03:00:00 NR 15.3060 82.7520 25 1000 newdelhi main 153 124 P___O_________ IO021997 15.2575 82.8150 XX 25 -5 15.5000 82.5000 D 25 1000 1.50000 6 4 322
1997263N14084 1997 86 NI BB NOT_NAMED 1997-09-23 06:00:00 NR 15.5333 82.6333 25 1000 newdelhi main 124 109 O___O_________ jtwc_io IO021997 15.3000 82.7000 XX 25 -5 16.0000 82.5000 D 25 1000 1.50000 6 4 325
1997263N14084 1997 86 NI BB NOT_NAMED 1997-09-23 09:00:00 NR 15.6200 82.5243 25 1000 newdelhi main 109 99 P___O_________ IO021997 15.3350 82.5425 XX 25 -5 16.0000 82.5000 D 25 1000 1.50000 6 2 313
1997263N14084 1997 86 NI BB NOT_NAMED 1997-09-23 12:00:00 NR 15.7000 82.4500 30 998 newdelhi main 99 94 O___O_________ jtwc_io IO021997 15.4000 82.4000 XX 25 -5 16.0000 82.5000 DD 30 998 2.00000 6 2 321
1997263N14084 1997 86 NI BB NOT_NAMED 1997-09-23 15:00:00 NR 15.7467 82.4138 main 94 84 P___P_________ IO021997 15.5275 82.3275 XX 25 -5 15.9659 82.5000 DD 30 998 6 2 348
1997263N14084 1997 86 NI BB NOT_NAMED 1997-09-23 18:00:00 NR 15.8500 82.4000 30 998 newdelhi main 74 55 O___O_________ jtwc_io IO021997 15.7000 82.3000 XX 25 -5 16.0000 82.5000 DD 30 998 2.00000 6 3 358
1997263N14084 1997 86 NI BB NOT_NAMED 1997-09-23 21:00:00 NR 16.0798 82.3888 main 55 35 P___P_________ IO021997 15.8925 82.2775 XX 27 -5 16.2670 82.5000 DD 30 998 6 5 0
1997263N14084 1997 86 NI BB NOT_NAMED 1997-09-24 00:00:00 NR 16.3000 82.4000 30 998 newdelhi main 35 24 O___O_________ jtwc_io IO021997 16.1000 82.3000 XX 30 -5 16.5000 82.5000 DD 30 998 2.00000 6 3 11
1997263N14084 1997 86 NI BB NOT_NAMED 1997-09-24 03:00:00 NR 16.4000 82.4425 30 998 newdelhi main 24 24 P___O_________ IO021997 16.3000 82.3850 XX 30 -5 16.5000 82.5000 DD 30 998 2.00000 6 2 27
1997263N14084 1997 86 NI BB NOT_NAMED 1997-09-24 06:00:00 NR 16.5000 82.5000 30 998 newdelhi main 24 24 O___O_________ jtwc_io IO021997 16.5000 82.5000 XX 30 -5 16.5000 82.5000 DD 30 998 2.00000 6 3 43
1997263N14084 1997 86 NI BB NOT_NAMED 1997-09-24 09:00:00 NR 16.6037 82.6388 35 996 newdelhi main 30 30 P___O_________ IO021997 16.7074 82.5776 XX 30 -5 16.5000 82.7000 CS 35 996 2.50000 8 4 44
1997263N14084 1997 86 NI BB NOT_NAMED 1997-09-24 12:00:00 NR 16.8000 82.8000 35 996 newdelhi main 42 42 O___O_________ jtwc_io IO021997 16.9000 82.7000 XX 30 -5 16.7000 82.9000 CS 35 996 2.50000 8 4 42
1997263N14084 1997 86 NI BB NOT_NAMED 1997-09-24 15:00:00 NR 16.8862 82.9067 main 53 53 P___P_________ IO021997 17.0725 82.9199 XX 32 -5 16.6999 82.8934 CS 35 996 8 3 58
1997263N14084 1997 86 NI BB NOT_NAMED 1997-09-24 18:00:00 NR 16.9500 83.0500 35 996 newdelhi main 54 49 O___O_________ jtwc_io IO021997 17.2000 83.2000 XX 35 -5 16.7000 82.9000 CS 35 996 2.50000 8 5 61
1997263N14084 1997 86 NI BB NOT_NAMED 1997-09-24 21:00:00 NR 17.1354 83.3728 main 59 49 P___P_________ IO021997 17.2500 83.4926 XX 35 -5 17.0207 83.2529 CS 35 995 8 7 61
1997263N14084 1997 86 NI BB NOT_NAMED 1997-09-25 00:00:00 NR 17.3000 83.7000 35 994 newdelhi main 61 61 O___O_________ jtwc_io IO021997 17.3000 83.8000 XX 35 -5 17.3000 83.6000 CS 35 994 2.50000 8 6 66
1997263N14084 1997 86 NI BB NOT_NAMED 1997-09-25 03:00:00 NR 17.3600 83.9038 35 994 newdelhi main 69 69 P___O_________ IO021997 17.4200 84.1075 XX 35 -5 17.3000 83.7000 CS 35 994 2.50000 8 6 54
1997263N14084 1997 86 NI BB NOT_NAMED 1997-09-25 06:00:00 NR 17.6500 84.2000 35 994 newdelhi main 64 59 O___O_________ jtwc_io IO021997 17.6000 84.4000 XX 35 -5 17.7000 84.0000 CS 35 994 2.50000 8 8 49
1997263N14084 1997 86 NI BB NOT_NAMED 1997-09-25 09:00:00 NR 17.9099 84.5676 35 994 newdelhi main 69 69 P___O_________ IO021997 17.8198 84.6352 XX 35 -5 18.0000 84.5000 CS 35 994 2.50000 8 8 61
1997263N14084 1997 86 NI BB NOT_NAMED 1997-09-25 12:00:00 NR 18.0500 84.9500 35 994 newdelhi main 84 84 O___O_________ jtwc_io IO021997 18.1000 84.9000 XX 35 -5 18.0000 85.0000 CS 35 994 2.50000 8 9 63
1997263N14084 1997 86 NI BB NOT_NAMED 1997-09-25 15:00:00 NR 18.3034 85.3644 main 101 95 P___P_________ IO021997 18.4424 85.2625 XX 40 -5 18.1644 85.4663 CS 35 994 8 10 55
1997263N14084 1997 86 NI BB NOT_NAMED 1997-09-25 18:00:00 NR 18.6500 85.8500 35 994 newdelhi main 113 105 O___O_________ jtwc_io IO021997 18.8000 85.7000 XX 45 -5 18.5000 86.0000 CS 35 994 2.50000 8 13 56
1997263N14084 1997 86 NI BB NOT_NAMED 1997-09-25 21:00:00 NR 19.0371 86.5154 main 109 91 P___P_________ IO021997 19.1073 86.1628 XX 50 -5 18.9669 86.8681 CS 35 994 8 14 56
1997263N14084 1997 86 NI BB NOT_NAMED 1997-09-26 00:00:00 NR 19.4500 87.1000 35 994 newdelhi main 92 83 O___O_________ jtwc_io IO021997 19.4000 86.7000 XX 55 -5 19.5000 87.5000 CS 35 994 2.50000 8 12 47
1997263N14084 1997 86 NI BB NOT_NAMED 1997-09-26 03:00:00 NR 19.8350 87.4103 35 994 newdelhi main 92 85 P___O_________ IO021997 19.6699 87.3206 XX 55 -5 20.0000 87.5000 CS 35 994 2.50000 8 13 54
1997263N14084 1997 86 NI BB NOT_NAMED 1997-09-26 06:00:00 NR 20.2500 88.2500 40 992 newdelhi main 142 100 O___O_________ jtwc_io IO021997 20.0000 88.0000 XX 55 -5 20.5000 88.5000 CS 40 992 2.50000 8 15 51
1997263N14084 1997 86 NI BB NOT_NAMED 1997-09-26 09:00:00 NR 20.7426 88.6110 45 990 newdelhi main 101 49 P___O_________ IO021997 20.4851 88.7220 XX 57 -5 21.0000 88.5000 CS 45 990 3.00000 10 15 48
1997263N14084 1997 86 NI BB NOT_NAMED 1997-09-26 12:00:00 NR 21.2500 89.4500 45 988 newdelhi main 45 22 O___O_________ jtwc_io IO021997 21.0000 89.4000 XX 60 -5 21.5000 89.5000 CS 45 988 3.00000 12 17 60
1997263N14084 1997 86 NI BB NOT_NAMED 1997-09-26 15:00:00 NR 21.5908 90.1579 main 22 15 P___P_________ IO021997 21.4147 89.9456 XX 62 -5 21.7669 90.3702 CS 50 986 14 13 61
1997263N14084 1997 86 NI BB NOT_NAMED 1997-09-26 18:00:00 NR 21.9000 90.7000 55 984 newdelhi main 15 10 O___O_________ jtwc_io IO021997 21.8000 90.4000 XX 65 -5 22.0000 91.0000 SCS 55 984 3.50000 16 11 46
1997263N14084 1997 86 NI BB NOT_NAMED 1997-09-26 21:00:00 NR 22.3208 90.9798 main 20 0 P___P_________ IO021997 22.1771 90.7933 XX 65 -5 22.4645 91.1664 SCS 11 34
1997263N14084 1997 86 NI BB NOT_NAMED 1997-09-27 00:00:00 NR 22.8000 91.3500 newdelhi main 0 0 O___O_________ jtwc_io IO021997 22.6000 91.2000 XX 65 -5 23.0000 91.5000 CS 0.00000 14 46
1997263N14084 1997 86 NI BB NOT_NAMED 1997-09-27 03:00:00 NR 23.3138 92.1137 newdelhi main 0 0 P___O_________ IO021997 23.1275 91.7275 XX 65 -5 23.5000 92.5000 CS 0.00000 14 43
1997263N14084 1997 86 NI BB NOT_NAMED 1997-09-27 06:00:00 NR 23.8286 92.3857 newdelhi main 0 0 O___O_________ jtwc_io IO021997 23.7000 92.3000 XX 65 -5 24.0000 92.5000 DD 0.00000 11 34
1997263N14084 1997 86 NI BB NOT_NAMED 1997-09-27 09:00:00 NR 24.2052 92.7784 main 0 0 P___P_________ IO021997 24.2424 92.8580 XX 50 -5 24.1309 92.6192 DD 11 47
1997263N14084 1997 86 NI BB NOT_NAMED 1997-09-27 12:00:00 NR 24.6000 93.3000 newdelhi main 0 0 O___O_________ jtwc_io IO021997 24.8000 93.4000 XX 35 -5 24.0000 93.0000 D 0.00000 16 41
1997263N14084 1997 86 NI BB NOT_NAMED 1997-09-27 15:00:00 NR 25.3903 93.9090 main 0 0 P_____________ IO021997 25.3903 93.9090 XX 30 -5 D 17 35
1997263N14084 1997 86 NI BB NOT_NAMED 1997-09-27 18:00:00 NR 26.0000 94.4000 main 0 O_____________ jtwc_io IO021997 26.0000 94.4000 XX 25 -5 15 36

About IBTrACS Database

This database is a web-friendly format of International Best Track Archive for Climate Stewardship (IBTrACS), a global best track data archive curated by NOAA dating back to 1842.

Updated: 2021-10-08